sensor_id;sensor_type;location;lat;lon;timestamp;temperature;humidity
45008;DHT22;30743;52.008;5.644;2023-04-03T00:01:19;7.10;99.90
45008;DHT22;30743;52.008;5.644;2023-04-03T00:03:45;7.00;99.90
45008;DHT22;30743;52.008;5.644;2023-04-03T00:06:11;7.00;99.90
45008;DHT22;30743;52.008;5.644;2023-04-03T00:08:38;6.90;99.90
45008;DHT22;30743;52.008;5.644;2023-04-03T00:11:05;6.70;99.90
45008;DHT22;30743;52.008;5.644;2023-04-03T00:13:31;6.70;99.90
45008;DHT22;30743;52.008;5.644;2023-04-03T00:15:57;6.60;99.90
45008;DHT22;30743;52.008;5.644;2023-04-03T00:18:22;6.50;99.90
45008;DHT22;30743;52.008;5.644;2023-04-03T00:20:48;6.50;99.90
45008;DHT22;30743;52.008;5.644;2023-04-03T00:23:14;6.50;99.90
45008;DHT22;30743;52.008;5.644;2023-04-03T00:25:40;6.50;99.90
45008;DHT22;30743;52.008;5.644;2023-04-03T00:28:06;6.60;99.90
45008;DHT22;30743;52.008;5.644;2023-04-03T00:30:31;6.50;99.90
45008;DHT22;30743;52.008;5.644;2023-04-03T00:32:57;6.50;99.90
45008;DHT22;30743;52.008;5.644;2023-04-03T00:35:24;6.50;99.90
45008;DHT22;30743;52.008;5.644;2023-04-03T00:37:54;6.60;99.90
45008;DHT22;30743;52.008;5.644;2023-04-03T00:40:22;6.50;99.90
45008;DHT22;30743;52.008;5.644;2023-04-03T00:42:50;6.50;99.90
45008;DHT22;30743;52.008;5.644;2023-04-03T00:47:53;6.40;99.90
45008;DHT22;30743;52.008;5.644;2023-04-03T00:50:19;6.30;99.90
45008;DHT22;30743;52.008;5.644;2023-04-03T00:52:45;6.30;99.90
45008;DHT22;30743;52.008;5.644;2023-04-03T00:55:13;6.30;99.90
45008;DHT22;30743;52.008;5.644;2023-04-03T00:57:40;6.30;99.90
45008;DHT22;30743;52.008;5.644;2023-04-03T01:00:09;6.30;99.90
45008;DHT22;30743;52.008;5.644;2023-04-03T01:02:36;6.10;99.90
45008;DHT22;30743;52.008;5.644;2023-04-03T01:05:02;6.30;99.90
45008;DHT22;30743;52.008;5.644;2023-04-03T01:07:29;6.20;99.90
45008;DHT22;30743;52.008;5.644;2023-04-03T01:10:01;6.20;99.90
45008;DHT22;30743;52.008;5.644;2023-04-03T01:12:36;6.20;99.90
45008;DHT22;30743;52.008;5.644;2023-04-03T01:17:36;6.30;99.90
45008;DHT22;30743;52.008;5.644;2023-04-03T01:25:43;6.40;99.90
45008;DHT22;30743;52.008;5.644;2023-04-03T01:28:13;6.30;99.90
45008;DHT22;30743;52.008;5.644;2023-04-03T01:30:53;6.30;99.90
45008;DHT22;30743;52.008;5.644;2023-04-03T01:33:21;6.30;99.90
45008;DHT22;30743;52.008;5.644;2023-04-03T01:35:47;6.20;99.90
45008;DHT22;30743;52.008;5.644;2023-04-03T01:38:13;6.10;99.90
45008;DHT22;30743;52.008;5.644;2023-04-03T01:40:38;6.20;99.90
45008;DHT22;30743;52.008;5.644;2023-04-03T01:43:04;6.10;99.90
45008;DHT22;30743;52.008;5.644;2023-04-03T01:45:29;6.20;99.90
45008;DHT22;30743;52.008;5.644;2023-04-03T01:47:55;6.20;99.90
45008;DHT22;30743;52.008;5.644;2023-04-03T01:50:20;6.20;99.90
45008;DHT22;30743;52.008;5.644;2023-04-03T01:52:46;6.10;99.90
45008;DHT22;30743;52.008;5.644;2023-04-03T01:55:12;6.10;99.90
45008;DHT22;30743;52.008;5.644;2023-04-03T01:57:38;6.10;99.90
45008;DHT22;30743;52.008;5.644;2023-04-03T02:00:04;6.10;99.90
45008;DHT22;30743;52.008;5.644;2023-04-03T02:02:29;6.10;99.90
45008;DHT22;30743;52.008;5.644;2023-04-03T02:04:55;6.10;99.90
45008;DHT22;30743;52.008;5.644;2023-04-03T02:07:21;6.20;99.90
45008;DHT22;30743;52.008;5.644;2023-04-03T02:09:46;6.20;99.90
45008;DHT22;30743;52.008;5.644;2023-04-03T02:12:12;6.30;99.90
45008;DHT22;30743;52.008;5.644;2023-04-03T02:14:37;6.40;99.90
45008;DHT22;30743;52.008;5.644;2023-04-03T02:17:03;6.40;99.90
45008;DHT22;30743;52.008;5.644;2023-04-03T02:19:31;6.50;99.90
45008;DHT22;30743;52.008;5.644;2023-04-03T02:21:56;6.40;99.90
45008;DHT22;30743;52.008;5.644;2023-04-03T02:24:22;6.50;99.90
45008;DHT22;30743;52.008;5.644;2023-04-03T02:26:47;6.50;99.90
45008;DHT22;30743;52.008;5.644;2023-04-03T02:29:13;6.60;99.90
45008;DHT22;30743;52.008;5.644;2023-04-03T02:31:38;6.50;99.90
45008;DHT22;30743;52.008;5.644;2023-04-03T02:34:04;6.60;99.90
45008;DHT22;30743;52.008;5.644;2023-04-03T02:36:29;6.70;99.90
45008;DHT22;30743;52.008;5.644;2023-04-03T02:38:55;6.70;99.90
45008;DHT22;30743;52.008;5.644;2023-04-03T02:41:21;6.70;99.90
45008;DHT22;30743;52.008;5.644;2023-04-03T02:43:46;6.80;99.90
45008;DHT22;30743;52.008;5.644;2023-04-03T02:46:12;6.70;99.90
45008;DHT22;30743;52.008;5.644;2023-04-03T02:48:40;6.70;99.90
45008;DHT22;30743;52.008;5.644;2023-04-03T02:51:05;6.70;99.90
45008;DHT22;30743;52.008;5.644;2023-04-03T02:53:31;6.80;99.90
45008;DHT22;30743;52.008;5.644;2023-04-03T02:55:57;6.80;99.90
45008;DHT22;30743;52.008;5.644;2023-04-03T02:58:22;6.80;99.90
45008;DHT22;30743;52.008;5.644;2023-04-03T03:00:48;6.90;99.90
45008;DHT22;30743;52.008;5.644;2023-04-03T03:03:13;6.80;99.90
45008;DHT22;30743;52.008;5.644;2023-04-03T03:05:39;6.80;99.90
45008;DHT22;30743;52.008;5.644;2023-04-03T03:08:05;6.70;99.90
45008;DHT22;30743;52.008;5.644;2023-04-03T03:10:30;6.60;99.90
45008;DHT22;30743;52.008;5.644;2023-04-03T03:12:56;6.40;99.90
45008;DHT22;30743;52.008;5.644;2023-04-03T03:15:21;6.30;99.90
45008;DHT22;30743;52.008;5.644;2023-04-03T03:17:47;6.40;99.90
45008;DHT22;30743;52.008;5.644;2023-04-03T03:20:13;6.20;99.90
45008;DHT22;30743;52.008;5.644;2023-04-03T03:22:41;6.30;99.90
45008;DHT22;30743;52.008;5.644;2023-04-03T03:25:07;6.30;99.90
45008;DHT22;30743;52.008;5.644;2023-04-03T03:27:33;6.40;99.90
45008;DHT22;30743;52.008;5.644;2023-04-03T03:29:58;6.40;99.90
45008;DHT22;30743;52.008;5.644;2023-04-03T03:32:24;6.30;99.90
45008;DHT22;30743;52.008;5.644;2023-04-03T03:34:50;6.30;99.90
45008;DHT22;30743;52.008;5.644;2023-04-03T03:37:15;6.20;99.90
45008;DHT22;30743;52.008;5.644;2023-04-03T03:39:41;6.30;99.90
45008;DHT22;30743;52.008;5.644;2023-04-03T03:42:06;6.30;99.90
45008;DHT22;30743;52.008;5.644;2023-04-03T03:44:32;6.20;99.90
45008;DHT22;30743;52.008;5.644;2023-04-03T03:46:57;6.10;99.90
45008;DHT22;30743;52.008;5.644;2023-04-03T03:49:23;6.10;99.90
45008;DHT22;30743;52.008;5.644;2023-04-03T03:51:48;6.10;99.90
45008;DHT22;30743;52.008;5.644;2023-04-03T03:54:15;6.10;99.90
45008;DHT22;30743;52.008;5.644;2023-04-03T03:56:40;5.90;99.90
45008;DHT22;30743;52.008;5.644;2023-04-03T03:59:06;5.80;99.90
45008;DHT22;30743;52.008;5.644;2023-04-03T04:01:32;5.90;99.90
45008;DHT22;30743;52.008;5.644;2023-04-03T04:03:58;5.80;99.90
45008;DHT22;30743;52.008;5.644;2023-04-03T04:06:23;5.60;99.90
45008;DHT22;30743;52.008;5.644;2023-04-03T04:08:49;5.70;99.90
45008;DHT22;30743;52.008;5.644;2023-04-03T04:11:15;5.70;99.90
45008;DHT22;30743;52.008;5.644;2023-04-03T04:13:40;5.80;99.90
45008;DHT22;30743;52.008;5.644;2023-04-03T04:16:07;5.90;99.90
45008;DHT22;30743;52.008;5.644;2023-04-03T04:18:32;5.80;99.90
45008;DHT22;30743;52.008;5.644;2023-04-03T04:20:58;5.90;99.90
45008;DHT22;30743;52.008;5.644;2023-04-03T04:23:23;5.60;99.90
45008;DHT22;30743;52.008;5.644;2023-04-03T04:25:49;5.60;99.90
45008;DHT22;30743;52.008;5.644;2023-04-03T04:28:15;5.60;99.90
45008;DHT22;30743;52.008;5.644;2023-04-03T04:30:41;5.80;99.90
45008;DHT22;30743;52.008;5.644;2023-04-03T04:33:07;5.80;99.90
45008;DHT22;30743;52.008;5.644;2023-04-03T04:35:33;5.80;99.90
45008;DHT22;30743;52.008;5.644;2023-04-03T04:37:59;5.70;99.90
45008;DHT22;30743;52.008;5.644;2023-04-03T04:40:25;5.60;99.90
45008;DHT22;30743;52.008;5.644;2023-04-03T04:42:51;5.40;99.90
45008;DHT22;30743;52.008;5.644;2023-04-03T04:45:17;5.40;99.90
45008;DHT22;30743;52.008;5.644;2023-04-03T04:47:43;5.30;99.90
45008;DHT22;30743;52.008;5.644;2023-04-03T04:50:09;5.10;99.90
45008;DHT22;30743;52.008;5.644;2023-04-03T04:52:35;5.20;99.90
45008;DHT22;30743;52.008;5.644;2023-04-03T04:55:00;5.10;99.90
45008;DHT22;30743;52.008;5.644;2023-04-03T04:57:26;5.00;99.90
45008;DHT22;30743;52.008;5.644;2023-04-03T04:59:51;4.80;99.90
45008;DHT22;30743;52.008;5.644;2023-04-03T05:02:17;4.80;99.90
45008;DHT22;30743;52.008;5.644;2023-04-03T05:04:42;4.90;99.90
45008;DHT22;30743;52.008;5.644;2023-04-03T05:07:08;4.90;99.90
45008;DHT22;30743;52.008;5.644;2023-04-03T05:09:33;5.00;99.90
45008;DHT22;30743;52.008;5.644;2023-04-03T05:11:59;5.20;99.90
45008;DHT22;30743;52.008;5.644;2023-04-03T05:14:25;5.20;99.90
45008;DHT22;30743;52.008;5.644;2023-04-03T05:16:51;5.20;99.90
45008;DHT22;30743;52.008;5.644;2023-04-03T05:19:20;5.30;99.90
45008;DHT22;30743;52.008;5.644;2023-04-03T05:21:46;5.20;99.90
45008;DHT22;30743;52.008;5.644;2023-04-03T05:24:11;5.20;99.90
45008;DHT22;30743;52.008;5.644;2023-04-03T05:26:37;5.10;99.90
45008;DHT22;30743;52.008;5.644;2023-04-03T05:29:03;5.10;99.90
45008;DHT22;30743;52.008;5.644;2023-04-03T05:31:29;5.10;99.90
45008;DHT22;30743;52.008;5.644;2023-04-03T05:33:55;5.10;99.90
45008;DHT22;30743;52.008;5.644;2023-04-03T05:36:21;5.10;99.90
45008;DHT22;30743;52.008;5.644;2023-04-03T05:38:47;5.10;99.90
45008;DHT22;30743;52.008;5.644;2023-04-03T05:41:13;5.00;99.90
45008;DHT22;30743;52.008;5.644;2023-04-03T05:43:38;5.10;99.90
45008;DHT22;30743;52.008;5.644;2023-04-03T05:46:11;5.10;99.90
45008;DHT22;30743;52.008;5.644;2023-04-03T05:48:37;5.10;99.90
45008;DHT22;30743;52.008;5.644;2023-04-03T05:51:03;5.00;99.90
45008;DHT22;30743;52.008;5.644;2023-04-03T05:53:32;5.00;99.90
45008;DHT22;30743;52.008;5.644;2023-04-03T05:55:58;5.00;99.90
45008;DHT22;30743;52.008;5.644;2023-04-03T05:58:24;5.00;99.90
45008;DHT22;30743;52.008;5.644;2023-04-03T06:00:49;5.00;99.90
45008;DHT22;30743;52.008;5.644;2023-04-03T06:03:15;5.00;99.90
45008;DHT22;30743;52.008;5.644;2023-04-03T06:05:42;4.90;99.90
45008;DHT22;30743;52.008;5.644;2023-04-03T06:08:08;5.10;99.90
45008;DHT22;30743;52.008;5.644;2023-04-03T06:10:34;5.20;99.90
45008;DHT22;30743;52.008;5.644;2023-04-03T06:13:01;5.40;99.90
45008;DHT22;30743;52.008;5.644;2023-04-03T06:15:26;5.50;99.90
45008;DHT22;30743;52.008;5.644;2023-04-03T06:17:52;5.70;99.90
45008;DHT22;30743;52.008;5.644;2023-04-03T06:20:18;5.90;99.90
45008;DHT22;30743;52.008;5.644;2023-04-03T06:22:43;5.90;99.90
45008;DHT22;30743;52.008;5.644;2023-04-03T06:25:09;5.90;99.90
45008;DHT22;30743;52.008;5.644;2023-04-03T06:27:35;6.10;99.90
45008;DHT22;30743;52.008;5.644;2023-04-03T06:30:00;6.20;99.90
45008;DHT22;30743;52.008;5.644;2023-04-03T06:32:26;6.20;99.90
45008;DHT22;30743;52.008;5.644;2023-04-03T06:34:52;6.40;99.90
45008;DHT22;30743;52.008;5.644;2023-04-03T06:37:20;6.30;99.90
45008;DHT22;30743;52.008;5.644;2023-04-03T06:39:46;6.40;99.90
45008;DHT22;30743;52.008;5.644;2023-04-03T06:42:12;6.50;99.90
45008;DHT22;30743;52.008;5.644;2023-04-03T06:44:38;6.80;99.90
45008;DHT22;30743;52.008;5.644;2023-04-03T06:47:04;6.80;99.90
45008;DHT22;30743;52.008;5.644;2023-04-03T06:49:29;7.00;99.90
45008;DHT22;30743;52.008;5.644;2023-04-03T06:51:55;7.00;99.90
45008;DHT22;30743;52.008;5.644;2023-04-03T06:54:21;7.10;99.90
45008;DHT22;30743;52.008;5.644;2023-04-03T06:56:47;7.10;99.90
45008;DHT22;30743;52.008;5.644;2023-04-03T06:59:13;7.10;99.90
45008;DHT22;30743;52.008;5.644;2023-04-03T07:01:41;7.30;99.90
45008;DHT22;30743;52.008;5.644;2023-04-03T07:04:08;7.90;99.90
45008;DHT22;30743;52.008;5.644;2023-04-03T07:06:34;7.90;99.90
45008;DHT22;30743;52.008;5.644;2023-04-03T07:09:00;8.00;99.90
45008;DHT22;30743;52.008;5.644;2023-04-03T07:11:26;8.00;99.90
45008;DHT22;30743;52.008;5.644;2023-04-03T07:13:52;8.30;99.90
45008;DHT22;30743;52.008;5.644;2023-04-03T07:16:19;8.50;99.90
45008;DHT22;30743;52.008;5.644;2023-04-03T07:18:45;10.30;99.90
45008;DHT22;30743;52.008;5.644;2023-04-03T07:21:11;8.80;99.90
45008;DHT22;30743;52.008;5.644;2023-04-03T07:23:38;9.40;99.90
45008;DHT22;30743;52.008;5.644;2023-04-03T07:26:04;10.00;99.90
45008;DHT22;30743;52.008;5.644;2023-04-03T07:28:30;10.30;99.90
45008;DHT22;30743;52.008;5.644;2023-04-03T07:31:03;10.00;99.90
45008;DHT22;30743;52.008;5.644;2023-04-03T07:33:28;10.10;99.90
45008;DHT22;30743;52.008;5.644;2023-04-03T07:35:54;10.60;99.90
45008;DHT22;30743;52.008;5.644;2023-04-03T07:38:20;10.90;99.90
45008;DHT22;30743;52.008;5.644;2023-04-03T07:40:48;11.10;99.90
45008;DHT22;30743;52.008;5.644;2023-04-03T07:43:14;11.30;99.90
45008;DHT22;30743;52.008;5.644;2023-04-03T07:45:41;11.70;99.90
45008;DHT22;30743;52.008;5.644;2023-04-03T07:48:06;12.10;99.90
45008;DHT22;30743;52.008;5.644;2023-04-03T07:50:32;12.50;99.90
45008;DHT22;30743;52.008;5.644;2023-04-03T07:52:58;12.80;99.90
45008;DHT22;30743;52.008;5.644;2023-04-03T07:55:24;13.20;99.90
45008;DHT22;30743;52.008;5.644;2023-04-03T07:57:50;13.60;99.90
45008;DHT22;30743;52.008;5.644;2023-04-03T08:00:16;13.40;99.90
45008;DHT22;30743;52.008;5.644;2023-04-03T08:02:43;13.20;99.90
45008;DHT22;30743;52.008;5.644;2023-04-03T08:05:10;13.40;99.90
45008;DHT22;30743;52.008;5.644;2023-04-03T08:07:37;13.80;99.90
45008;DHT22;30743;52.008;5.644;2023-04-03T08:10:04;13.70;99.50
45008;DHT22;30743;52.008;5.644;2023-04-03T08:12:29;13.80;99.80
45008;DHT22;30743;52.008;5.644;2023-04-03T08:14:57;13.60;98.80
45008;DHT22;30743;52.008;5.644;2023-04-03T08:17:22;13.90;99.00
45008;DHT22;30743;52.008;5.644;2023-04-03T08:19:48;14.00;97.30
45008;DHT22;30743;52.008;5.644;2023-04-03T08:22:13;14.30;98.10
45008;DHT22;30743;52.008;5.644;2023-04-03T08:24:39;13.80;97.70
45008;DHT22;30743;52.008;5.644;2023-04-03T08:27:05;14.00;97.20
45008;DHT22;30743;52.008;5.644;2023-04-03T08:29:31;14.30;97.40
45008;DHT22;30743;52.008;5.644;2023-04-03T08:31:56;14.30;95.60
45008;DHT22;30743;52.008;5.644;2023-04-03T08:34:22;14.70;96.00
45008;DHT22;30743;52.008;5.644;2023-04-03T08:36:48;14.90;94.90
45008;DHT22;30743;52.008;5.644;2023-04-03T08:39:13;14.50;93.60
45008;DHT22;30743;52.008;5.644;2023-04-03T08:41:41;15.10;93.60
45008;DHT22;30743;52.008;5.644;2023-04-03T08:49:42;16.50;92.20
45008;DHT22;30743;52.008;5.644;2023-04-03T08:52:15;16.40;92.10
45008;DHT22;30743;52.008;5.644;2023-04-03T08:54:57;15.70;90.50
45008;DHT22;30743;52.008;5.644;2023-04-03T08:57:36;15.10;90.90
45008;DHT22;30743;52.008;5.644;2023-04-03T09:00:09;15.50;90.10
45008;DHT22;30743;52.008;5.644;2023-04-03T09:02:53;15.70;89.70
45008;DHT22;30743;52.008;5.644;2023-04-03T09:05:39;15.50;88.50
45008;DHT22;30743;52.008;5.644;2023-04-03T09:08:30;15.80;86.50
45008;DHT22;30743;52.008;5.644;2023-04-03T09:14:38;15.90;87.30
45008;DHT22;30743;52.008;5.644;2023-04-03T09:17:15;14.80;78.60
45008;DHT22;30743;52.008;5.644;2023-04-03T09:22:43;14.60;82.00
45008;DHT22;30743;52.008;5.644;2023-04-03T09:25:23;14.40;80.10
45008;DHT22;30743;52.008;5.644;2023-04-03T09:27:50;14.20;76.30
45008;DHT22;30743;52.008;5.644;2023-04-03T09:30:19;14.20;77.40
45008;DHT22;30743;52.008;5.644;2023-04-03T09:32:47;14.10;77.60
45008;DHT22;30743;52.008;5.644;2023-04-03T09:37:42;14.80;76.70
45008;DHT22;30743;52.008;5.644;2023-04-03T09:40:30;15.30;76.20
45008;DHT22;30743;52.008;5.644;2023-04-03T09:42:59;15.50;74.30
45008;DHT22;30743;52.008;5.644;2023-04-03T09:45:27;15.60;74.90
45008;DHT22;30743;52.008;5.644;2023-04-03T09:48:08;15.70;73.30
45008;DHT22;30743;52.008;5.644;2023-04-03T09:50:36;15.90;71.30
45008;DHT22;30743;52.008;5.644;2023-04-03T09:53:07;16.30;68.50
45008;DHT22;30743;52.008;5.644;2023-04-03T09:55:42;16.50;74.00
45008;DHT22;30743;52.008;5.644;2023-04-03T09:58:33;17.10;71.40
45008;DHT22;30743;52.008;5.644;2023-04-03T10:01:01;17.60;73.00
45008;DHT22;30743;52.008;5.644;2023-04-03T10:03:36;17.30;68.40
45008;DHT22;30743;52.008;5.644;2023-04-03T10:06:04;16.10;67.70
45008;DHT22;30743;52.008;5.644;2023-04-03T10:08:34;15.70;71.80
45008;DHT22;30743;52.008;5.644;2023-04-03T10:11:15;16.20;73.20
45008;DHT22;30743;52.008;5.644;2023-04-03T10:13:52;16.40;67.40
45008;DHT22;30743;52.008;5.644;2023-04-03T10:16:21;16.80;68.80
45008;DHT22;30743;52.008;5.644;2023-04-03T10:19:03;17.20;67.70
45008;DHT22;30743;52.008;5.644;2023-04-03T10:24:14;17.80;66.60
45008;DHT22;30743;52.008;5.644;2023-04-03T10:26:56;17.80;67.70
45008;DHT22;30743;52.008;5.644;2023-04-03T10:29:40;17.70;67.90
45008;DHT22;30743;52.008;5.644;2023-04-03T10:35:30;18.10;64.50
45008;DHT22;30743;52.008;5.644;2023-04-03T10:46:11;18.40;67.30
45008;DHT22;30743;52.008;5.644;2023-04-03T10:51:10;18.70;70.70
45008;DHT22;30743;52.008;5.644;2023-04-03T10:53:57;18.80;71.90
45008;DHT22;30743;52.008;5.644;2023-04-03T11:01:48;18.40;73.30
45008;DHT22;30743;52.008;5.644;2023-04-03T11:04:16;18.50;73.30
45008;DHT22;30743;52.008;5.644;2023-04-03T11:06:56;18.10;67.70
45008;DHT22;30743;52.008;5.644;2023-04-03T11:09:27;18.30;71.00
45008;DHT22;30743;52.008;5.644;2023-04-03T11:12:02;18.30;67.70
45008;DHT22;30743;52.008;5.644;2023-04-03T11:14:35;18.30;69.40
45008;DHT22;30743;52.008;5.644;2023-04-03T11:17:45;18.30;71.10
45008;DHT22;30743;52.008;5.644;2023-04-03T11:22:32;18.60;72.30
45008;DHT22;30743;52.008;5.644;2023-04-03T11:28:06;18.40;74.10
45008;DHT22;30743;52.008;5.644;2023-04-03T11:35:57;18.80;67.70
45008;DHT22;30743;52.008;5.644;2023-04-03T11:38:33;18.70;67.00
45008;DHT22;30743;52.008;5.644;2023-04-03T11:41:03;18.80;71.00
45008;DHT22;30743;52.008;5.644;2023-04-03T11:43:31;18.90;69.70
45008;DHT22;30743;52.008;5.644;2023-04-03T11:45:59;19.10;69.10
45008;DHT22;30743;52.008;5.644;2023-04-03T11:53:53;19.30;69.90
45008;DHT22;30743;52.008;5.644;2023-04-03T12:01:45;18.80;69.00
45008;DHT22;30743;52.008;5.644;2023-04-03T12:04:13;18.70;69.10
45008;DHT22;30743;52.008;5.644;2023-04-03T12:09:34;19.30;68.90
45008;DHT22;30743;52.008;5.644;2023-04-03T12:12:21;19.70;69.40
45008;DHT22;30743;52.008;5.644;2023-04-03T12:14:47;19.60;66.50
45008;DHT22;30743;52.008;5.644;2023-04-03T12:17:22;19.20;66.60
45008;DHT22;30743;52.008;5.644;2023-04-03T12:19:49;18.90;70.70
45008;DHT22;30743;52.008;5.644;2023-04-03T12:22:18;18.80;70.30
45008;DHT22;30743;52.008;5.644;2023-04-03T12:24:47;19.00;67.80
45008;DHT22;30743;52.008;5.644;2023-04-03T12:32:54;19.40;69.80
45008;DHT22;30743;52.008;5.644;2023-04-03T12:35:27;19.00;67.80
45008;DHT22;30743;52.008;5.644;2023-04-03T12:41:15;18.40;69.00
45008;DHT22;30743;52.008;5.644;2023-04-03T12:46:44;17.00;74.50
45008;DHT22;30743;52.008;5.644;2023-04-03T12:51:54;17.40;73.30
45008;DHT22;30743;52.008;5.644;2023-04-03T12:54:39;17.90;71.00
45008;DHT22;30743;52.008;5.644;2023-04-03T12:57:27;18.30;73.20
45008;DHT22;30743;52.008;5.644;2023-04-03T12:59:54;18.70;68.10
45008;DHT22;30743;52.008;5.644;2023-04-03T13:02:21;18.60;69.70
45008;DHT22;30743;52.008;5.644;2023-04-03T13:04:48;18.90;70.10
45008;DHT22;30743;52.008;5.644;2023-04-03T13:07:27;19.00;70.70
45008;DHT22;30743;52.008;5.644;2023-04-03T13:10:17;19.10;69.80
45008;DHT22;30743;52.008;5.644;2023-04-03T13:15:21;19.40;69.80
45008;DHT22;30743;52.008;5.644;2023-04-03T13:17:48;20.70;69.40
45008;DHT22;30743;52.008;5.644;2023-04-03T13:20:33;20.00;70.00
45008;DHT22;30743;52.008;5.644;2023-04-03T13:23:00;20.20;65.40
45008;DHT22;30743;52.008;5.644;2023-04-03T13:25:30;20.10;66.60
45008;DHT22;30743;52.008;5.644;2023-04-03T13:27:57;19.60;64.70
45008;DHT22;30743;52.008;5.644;2023-04-03T13:30:26;19.10;68.10
45008;DHT22;30743;52.008;5.644;2023-04-03T13:32:53;19.00;68.50
45008;DHT22;30743;52.008;5.644;2023-04-03T13:35:45;18.60;70.50
45008;DHT22;30743;52.008;5.644;2023-04-03T13:41:21;17.80;73.70
45008;DHT22;30743;52.008;5.644;2023-04-03T13:43:48;18.00;71.40
45008;DHT22;30743;52.008;5.644;2023-04-03T13:48:48;18.00;73.50
45008;DHT22;30743;52.008;5.644;2023-04-03T13:54:00;18.10;70.00
45008;DHT22;30743;52.008;5.644;2023-04-03T14:01:46;18.40;75.00
45008;DHT22;30743;52.008;5.644;2023-04-03T14:06:47;18.50;73.00
45008;DHT22;30743;52.008;5.644;2023-04-03T14:09:14;18.40;71.40
45008;DHT22;30743;52.008;5.644;2023-04-03T14:11:41;18.20;73.00
45008;DHT22;30743;52.008;5.644;2023-04-03T14:14:20;18.40;73.60
45008;DHT22;30743;52.008;5.644;2023-04-03T14:16:52;18.50;72.10
45008;DHT22;30743;52.008;5.644;2023-04-03T14:19:24;18.50;72.80
45008;DHT22;30743;52.008;5.644;2023-04-03T14:21:51;18.50;70.30
45008;DHT22;30743;52.008;5.644;2023-04-03T14:24:18;18.60;70.20
45008;DHT22;30743;52.008;5.644;2023-04-03T14:26:44;18.10;70.90
45008;DHT22;30743;52.008;5.644;2023-04-03T14:29:11;17.60;73.00
45008;DHT22;30743;52.008;5.644;2023-04-03T14:31:38;17.50;72.70
45008;DHT22;30743;52.008;5.644;2023-04-03T14:34:04;18.10;74.50
45008;DHT22;30743;52.008;5.644;2023-04-03T14:36:30;17.30;72.50
45008;DHT22;30743;52.008;5.644;2023-04-03T14:38:56;16.90;73.40
45008;DHT22;30743;52.008;5.644;2023-04-03T14:41:25;16.60;76.00
45008;DHT22;30743;52.008;5.644;2023-04-03T14:43:52;16.70;76.90
45008;DHT22;30743;52.008;5.644;2023-04-03T14:46:21;15.90;75.50
45008;DHT22;30743;52.008;5.644;2023-04-03T14:48:48;16.40;77.50
45008;DHT22;30743;52.008;5.644;2023-04-03T14:51:15;16.50;75.50
45008;DHT22;30743;52.008;5.644;2023-04-03T14:53:42;16.40;75.90
45008;DHT22;30743;52.008;5.644;2023-04-03T14:56:26;16.80;76.90
45008;DHT22;30743;52.008;5.644;2023-04-03T14:58:56;17.20;77.40
45008;DHT22;30743;52.008;5.644;2023-04-03T15:01:22;16.50;76.70
45008;DHT22;30743;52.008;5.644;2023-04-03T15:03:49;16.10;77.80
45008;DHT22;30743;52.008;5.644;2023-04-03T15:06:15;16.30;79.50
45008;DHT22;30743;52.008;5.644;2023-04-03T15:08:42;16.60;76.80
45008;DHT22;30743;52.008;5.644;2023-04-03T15:11:09;16.00;75.10
45008;DHT22;30743;52.008;5.644;2023-04-03T15:13:36;15.40;77.90
45008;DHT22;30743;52.008;5.644;2023-04-03T15:16:01;15.50;79.70
45008;DHT22;30743;52.008;5.644;2023-04-03T15:18:30;15.50;79.20
45008;DHT22;30743;52.008;5.644;2023-04-03T15:20:56;15.00;79.40
45008;DHT22;30743;52.008;5.644;2023-04-03T15:23:22;15.00;76.50
45008;DHT22;30743;52.008;5.644;2023-04-03T15:25:51;14.70;79.80
45008;DHT22;30743;52.008;5.644;2023-04-03T15:28:36;15.00;81.50
45008;DHT22;30743;52.008;5.644;2023-04-03T15:31:03;15.40;81.80
45008;DHT22;30743;52.008;5.644;2023-04-03T15:33:30;14.80;76.70
45008;DHT22;30743;52.008;5.644;2023-04-03T15:35:56;15.00;79.20
45008;DHT22;30743;52.008;5.644;2023-04-03T15:38:22;15.30;79.90
45008;DHT22;30743;52.008;5.644;2023-04-03T15:40:47;15.40;79.00
45008;DHT22;30743;52.008;5.644;2023-04-03T15:43:13;15.50;77.90
45008;DHT22;30743;52.008;5.644;2023-04-03T15:45:39;15.80;78.10
45008;DHT22;30743;52.008;5.644;2023-04-03T15:48:06;16.10;80.30
45008;DHT22;30743;52.008;5.644;2023-04-03T15:50:33;16.00;78.60
45008;DHT22;30743;52.008;5.644;2023-04-03T15:52:59;15.50;79.40
45008;DHT22;30743;52.008;5.644;2023-04-03T15:55:30;15.10;79.20
45008;DHT22;30743;52.008;5.644;2023-04-03T15:57:56;15.20;80.30
45008;DHT22;30743;52.008;5.644;2023-04-03T16:00:23;15.00;79.90
45008;DHT22;30743;52.008;5.644;2023-04-03T16:02:53;14.50;80.80
45008;DHT22;30743;52.008;5.644;2023-04-03T16:05:21;14.70;82.60
45008;DHT22;30743;52.008;5.644;2023-04-03T16:07:47;14.90;81.60
45008;DHT22;30743;52.008;5.644;2023-04-03T16:10:14;15.10;82.40
45008;DHT22;30743;52.008;5.644;2023-04-03T16:12:40;15.10;80.40
45008;DHT22;30743;52.008;5.644;2023-04-03T16:15:06;15.00;81.30
45008;DHT22;30743;52.008;5.644;2023-04-03T16:17:33;15.10;81.50
45008;DHT22;30743;52.008;5.644;2023-04-03T16:20:00;15.10;80.80
45008;DHT22;30743;52.008;5.644;2023-04-03T16:22:27;15.10;79.90
45008;DHT22;30743;52.008;5.644;2023-04-03T16:24:53;14.60;80.80
45008;DHT22;30743;52.008;5.644;2023-04-03T16:27:19;14.50;82.40
45008;DHT22;30743;52.008;5.644;2023-04-03T16:29:45;14.10;81.10
45008;DHT22;30743;52.008;5.644;2023-04-03T16:32:12;13.80;81.80
45008;DHT22;30743;52.008;5.644;2023-04-03T16:34:38;13.70;83.60
45008;DHT22;30743;52.008;5.644;2023-04-03T16:37:05;13.30;83.90
45008;DHT22;30743;52.008;5.644;2023-04-03T16:39:31;13.40;85.30
45008;DHT22;30743;52.008;5.644;2023-04-03T16:41:56;13.60;85.70
45008;DHT22;30743;52.008;5.644;2023-04-03T16:44:22;13.70;84.40
45008;DHT22;30743;52.008;5.644;2023-04-03T16:46:47;13.60;84.20
45008;DHT22;30743;52.008;5.644;2023-04-03T16:49:13;13.50;84.80
45008;DHT22;30743;52.008;5.644;2023-04-03T16:51:38;13.30;83.30
45008;DHT22;30743;52.008;5.644;2023-04-03T16:54:04;13.30;86.50
45008;DHT22;30743;52.008;5.644;2023-04-03T16:56:31;14.30;85.40
45008;DHT22;30743;52.008;5.644;2023-04-03T16:58:57;13.20;84.30
45008;DHT22;30743;52.008;5.644;2023-04-03T17:01:23;13.10;85.20
45008;DHT22;30743;52.008;5.644;2023-04-03T17:03:48;12.70;87.00
45008;DHT22;30743;52.008;5.644;2023-04-03T17:06:19;12.50;85.20
45008;DHT22;30743;52.008;5.644;2023-04-03T17:08:47;12.70;87.40
45008;DHT22;30743;52.008;5.644;2023-04-03T17:11:13;12.90;86.40
45008;DHT22;30743;52.008;5.644;2023-04-03T17:13:39;13.50;87.20
45008;DHT22;30743;52.008;5.644;2023-04-03T17:16:08;13.30;86.00
45008;DHT22;30743;52.008;5.644;2023-04-03T17:18:35;13.50;85.10
45008;DHT22;30743;52.008;5.644;2023-04-03T17:21:01;13.40;84.10
45008;DHT22;30743;52.008;5.644;2023-04-03T17:23:28;13.30;84.30
45008;DHT22;30743;52.008;5.644;2023-04-03T17:25:54;13.20;84.30
45008;DHT22;30743;52.008;5.644;2023-04-03T17:28:21;13.30;84.30